Time;durP1;ratioP1;P1;durP2;ratioP2;P2;SDS_P1;SDS_P2;PMS_P1;PMS_P2;Temp;Humidity;BMP_temperature;BMP_pressure;BME280_temperature;BME280_humidity;BME280_pressure;Samples;Min_cycle;Max_cycle;Signal;HPM_P1;HPM_P2
2023/08/31 00:31:47;;;;;;;;;;;;;;;;;;;;;
2023/08/31 00:50:56;;;;;;;;;;;;;;;;;;;;;
2023/08/31 05:04:31;;;;;;;;;;;;;;;;;;;;;
2023/08/31 05:08:03;;;;;;;;;;;;;;;;;;;;;
2023/08/31 05:11:14;;;;;;;5.82;3.75;;;13.00;94.00;;;;;;6176894;23;20013;-87
2023/08/31 05:14:28;;;;;;;6.63;4.15;;;12.90;94.10;;;;;;6137656;23;20064;-87
2023/08/31 05:18:10;;;;;;;8.18;4.65;;;12.90;94.20;;;;;;6144854;23;20025;-88
2023/08/31 05:21:16;;;;;;;10.20;4.57;;;12.90;94.40;;;;;;6140611;23;20076;-88
2023/08/31 05:23:51;;;;;;;8.77;5.07;;;12.90;94.50;;;;;;6168327;22;20041;-87
2023/08/31 05:26:31;;;;;;;;;;;;;;;;;;;;;
2023/08/31 05:30:00;;;;;;;7.72;5.28;;;13.00;94.70;;;;;;6280836;22;20019;-88
2023/08/31 05:32:53;;;;;;;11.57;7.35;;;13.00;94.70;;;;;;6269440;22;20094;-87
2023/08/31 05:41:30;;;;;;;10.02;6.88;;;12.90;95.20;;;;;;6308565;22;20440;-91
2023/08/31 05:45:01;;;;;;;11.23;6.90;;;12.90;95.20;;;;;;6302267;22;20318;-90
2023/08/31 05:48:26;;;;;;;11.00;7.65;;;12.90;95.40;;;;;;6248487;22;20020;-90
2023/08/31 05:51:07;;;;;;;13.02;9.05;;;12.90;95.60;;;;;;6258235;22;20043;-89
2023/08/31 05:53:34;;;;;;;11.32;8.60;;;12.90;95.80;;;;;;6255916;22;20045;-88
2023/08/31 05:56:07;;;;;;;12.43;8.90;;;12.90;95.90;;;;;;6255958;22;20011;-88
2023/08/31 05:58:36;;;;;;;11.05;7.57;;;12.90;95.90;;;;;;6255908;22;20026;-89
2023/08/31 06:01:04;;;;;;;13.70;9.23;;;12.90;95.90;;;;;;6255860;22;20110;-88
2023/08/31 06:03:35;;;;;;;12.70;8.20;;;12.90;95.90;;;;;;6256196;22;20038;-88
2023/08/31 06:06:03;;;;;;;13.98;9.70;;;12.90;95.90;;;;;;6256359;22;20090;-89
2023/08/31 06:08:36;;;;;;;9.85;7.35;;;12.90;96.00;;;;;;6255811;22;20034;-88
2023/08/31 06:11:03;;;;;;;8.57;6.20;;;12.90;96.00;;;;;;6255557;22;20110;-88
2023/08/31 06:13:35;;;;;;;9.05;6.40;;;13.00;95.90;;;;;;6255945;22;20015;-88
2023/08/31 06:16:05;;;;;;;10.23;6.65;;;13.00;95.90;;;;;;6257032;22;20023;-88
2023/08/31 06:18:34;;;;;;;10.43;7.18;;;13.00;96.00;;;;;;6208915;22;20019;-87
2023/08/31 06:21:01;;;;;;;12.23;9.57;;;12.90;96.00;;;;;;6257230;22;20016;-88
2023/08/31 06:23:29;;;;;;;12.25;9.50;;;13.00;96.20;;;;;;6257375;22;20023;-87
2023/08/31 06:25:59;;;;;;;11.65;8.27;;;12.90;96.30;;;;;;6257919;22;20503;-88
2023/08/31 06:28:26;;;;;;;11.10;8.38;;;12.90;96.30;;;;;;6232695;22;20094;-89
2023/08/31 06:30:59;;;;;;;12.95;9.68;;;12.90;96.20;;;;;;6235250;22;20066;-89
2023/08/31 06:33:29;;;;;;;11.00;9.05;;;12.90;96.30;;;;;;6258066;22;20019;-88
2023/08/31 06:36:02;;;;;;;12.43;8.63;;;13.00;96.40;;;;;;6258701;22;20015;-89
2023/08/31 06:38:30;;;;;;;13.80;8.73;;;13.10;96.30;;;;;;6258411;22;20023;-88
2023/08/31 06:40:58;;;;;;;12.73;9.38;;;13.30;96.30;;;;;;6257477;22;20015;-88
2023/08/31 06:43:28;;;;;;;12.98;7.45;;;13.50;96.20;;;;;;6283782;22;20098;-89
2023/08/31 06:45:58;;;;;;;9.10;7.35;;;13.70;96.10;;;;;;6258000;22;20019;-89
2023/08/31 06:48:49;;;;;;;14.60;10.75;;;13.90;95.90;;;;;;6261964;22;20023;-89
2023/08/31 06:56:37;;;;;;;11.93;8.73;;;13.80;95.90;;;;;;6310522;22;20022;-87
2023/08/31 06:59:08;;;;;;;11.50;9.73;;;13.40;96.10;;;;;;6257674;22;20073;-87
2023/08/31 07:01:50;;;;;;;9.77;7.97;;;13.30;96.40;;;;;;6264729;22;20042;-86
2023/08/31 07:04:20;;;;;;;10.55;7.15;;;13.30;96.50;;;;;;6264770;22;20019;-84
2023/08/31 07:06:47;;;;;;;10.52;7.28;;;13.30;96.50;;;;;;6289859;22;20026;-84
2023/08/31 07:09:16;;;;;;;8.68;6.65;;;13.40;96.50;;;;;;6264343;22;20023;-84
2023/08/31 07:11:44;;;;;;;9.95;8.20;;;13.40;96.50;;;;;;6291450;22;20097;-84
2023/08/31 07:14:14;;;;;;;12.15;8.98;;;13.40;96.50;;;;;;6263740;22;20025;-87
2023/08/31 07:16:45;;;;;;;13.20;9.85;;;13.50;96.60;;;;;;6232822;22;20024;-87
2023/08/31 07:19:15;;;;;;;12.37;8.33;;;13.50;96.60;;;;;;6233110;22;20023;-87
2023/08/31 07:21:54;;;;;;;13.30;10.40;;;13.50;96.50;;;;;;6257313;22;20047;-95
2023/08/31 07:24:24;;;;;;;11.00;9.25;;;13.60;96.60;;;;;;6282190;22;20046;-93
2023/08/31 07:26:54;;;;;;;10.60;8.57;;;13.50;96.60;;;;;;6283206;22;20042;-90
2023/08/31 07:29:21;;;;;;;13.35;8.07;;;13.60;96.60;;;;;;6257742;22;20390;-91
2023/08/31 07:31:49;;;;;;;10.68;7.55;;;13.70;96.60;;;;;;6257069;22;20380;-90
2023/08/31 07:34:16;;;;;;;13.27;9.20;;;13.70;96.50;;;;;;6257797;22;20412;-92
2023/08/31 07:36:50;;;;;;;13.35;8.63;;;13.70;96.50;;;;;;6258104;22;20078;-94
2023/08/31 07:39:22;;;;;;;12.90;9.02;;;13.60;96.60;;;;;;6257720;22;20520;-90
2023/08/31 07:41:54;;;;;;;11.20;8.43;;;13.60;96.70;;;;;;6282747;22;20078;-93
2023/08/31 07:44:22;;;;;;;12.02;8.07;;;13.50;96.80;;;;;;6257392;22;20363;-91
2023/08/31 07:46:52;;;;;;;9.82;6.68;;;13.50;96.90;;;;;;6232060;22;20035;-90
2023/08/31 07:49:26;;;;;;;11.18;7.53;;;13.70;96.90;;;;;;6233364;22;20438;-90
2023/08/31 07:51:53;;;;;;;9.20;7.20;;;13.80;96.80;;;;;;6257101;22;20023;-90
2023/08/31 07:54:21;;;;;;;8.93;6.30;;;13.90;96.70;;;;;;6232066;22;20015;-91
2023/08/31 07:56:48;;;;;;;9.88;6.47;;;14.00;96.60;;;;;;6232429;22;20022;-92
2023/08/31 07:59:19;;;;;;;8.68;5.80;;;14.10;96.60;;;;;;6282895;22;20019;-90
2023/08/31 08:01:48;;;;;;;11.25;7.35;;;14.10;96.50;;;;;;6257544;22;20042;-91
2023/08/31 08:04:15;;;;;;;10.27;6.30;;;14.10;96.60;;;;;;6257321;22;20027;-91
2023/08/31 08:06:42;;;;;;;9.00;5.72;;;14.00;96.70;;;;;;6257408;22;20106;-90
2023/08/31 08:09:09;;;;;;;9.10;6.15;;;14.10;96.70;;;;;;6282415;22;20429;-91
2023/08/31 08:11:38;;;;;;;12.23;6.63;;;14.10;96.70;;;;;;6232977;22;20024;-91
2023/08/31 08:14:06;;;;;;;10.40;6.30;;;14.10;96.60;;;;;;6232003;22;20015;-90
2023/08/31 08:16:36;;;;;;;7.93;5.50;;;14.10;96.70;;;;;;6257173;22;20022;-93
2023/08/31 08:19:05;;;;;;;8.65;5.78;;;14.10;96.70;;;;;;6281871;22;20019;-89
2023/08/31 08:21:32;;;;;;;9.05;5.43;;;14.10;96.80;;;;;;6256567;22;20015;-89
2023/08/31 08:23:59;;;;;;;7.32;4.63;;;14.10;96.70;;;;;;6256994;22;20512;-89
2023/08/31 08:26:27;;;;;;;8.30;5.03;;;14.20;96.70;;;;;;6232395;22;20021;-89
2023/08/31 08:28:54;;;;;;;7.03;4.32;;;14.30;96.70;;;;;;6256311;22;20023;-90
2023/08/31 08:31:21;;;;;;;6.35;4.22;;;14.40;96.60;;;;;;6232177;22;20084;-89
2023/08/31 08:33:53;;;;;;;7.80;5.28;;;14.50;96.60;;;;;;6232848;22;20015;-93
2023/08/31 08:36:20;;;;;;;7.78;5.57;;;14.60;96.60;;;;;;6255983;22;20026;-86
2023/08/31 08:38:50;;;;;;;8.93;4.75;;;14.70;96.50;;;;;;6230652;22;20069;-90
2023/08/31 08:41:28;;;;;;;9.93;6.82;;;14.90;96.40;;;;;;6257352;22;20064;-92
2023/08/31 08:43:58;;;;;;;9.35;6.57;;;15.20;96.20;;;;;;6281940;22;20019;-87
2023/08/31 08:46:26;;;;;;;8.90;7.45;;;15.30;96.10;;;;;;6259327;22;20026;-87
2023/08/31 08:48:54;;;;;;;11.43;7.97;;;15.20;96.10;;;;;;6261407;22;20034;-87
2023/08/31 08:51:22;;;;;;;12.05;6.93;;;15.20;96.20;;;;;;6257034;22;20019;-92
2023/08/31 08:53:51;;;;;;;10.00;5.15;;;15.20;96.20;;;;;;6282064;22;20037;-89
2023/08/31 08:56:18;;;;;;;8.13;4.28;;;15.30;96.20;;;;;;6273064;22;20011;-88
2023/08/31 08:58:45;;;;;;;7.03;4.57;;;15.40;96.20;;;;;;6255990;22;20049;-89
2023/08/31 09:01:12;;;;;;;6.70;4.50;;;15.50;96.10;;;;;;6278821;22;20192;-87
2023/08/31 09:03:40;;;;;;;7.05;3.88;;;15.50;96.00;;;;;;6244251;22;20022;-87
2023/08/31 09:06:10;;;;;;;8.70;5.30;;;15.70;96.00;;;;;;6266867;22;20049;-90
2023/08/31 09:08:40;;;;;;;10.90;5.43;;;15.80;95.90;;;;;;6212500;22;20027;-94
2023/08/31 09:11:23;;;;;;;7.80;5.28;;;15.80;95.80;;;;;;6259738;22;20019;-94
2023/08/31 09:13:56;;;;;;;6.13;4.18;;;15.80;95.80;;;;;;6270385;22;20019;-92
2023/08/31 09:16:31;;;;;;;7.18;4.55;;;15.80;95.90;;;;;;6278593;22;20072;-87
2023/08/31 09:18:59;;;;;;;6.78;4.38;;;15.70;95.90;;;;;;6271479;22;20034;-88
2023/08/31 09:21:36;;;;;;;6.63;4.75;;;15.80;96.00;;;;;;6282843;22;20023;-91
2023/08/31 09:24:12;;;;;;;5.63;3.60;;;15.90;96.00;;;;;;6257191;22;20102;-94
2023/08/31 09:26:46;;;;;;;9.60;4.72;;;16.10;95.90;;;;;;6258157;22;20019;-95
2023/08/31 09:29:16;;;;;;;5.88;3.50;;;16.30;95.70;;;;;;6281302;22;20463;-90
2023/08/31 09:31:52;;;;;;;5.88;3.28;;;16.40;95.60;;;;;;6256495;22;20021;-93
2023/08/31 09:34:20;;;;;;;6.72;3.78;;;16.60;95.50;;;;;;6282068;22;20019;-93
2023/08/31 09:36:51;;;;;;;6.45;3.70;;;16.80;95.20;;;;;;6256729;22;20026;-94
2023/08/31 09:39:23;;;;;;;8.52;3.75;;;16.90;94.90;;;;;;6256995;22;20019;-88
2023/08/31 09:41:55;;;;;;;3.83;2.67;;;16.90;95.00;;;;;;6261122;22;20023;-96
2023/08/31 09:44:25;;;;;;;2.97;1.83;;;16.90;94.90;;;;;;6282264;22;20041;-93
2023/08/31 09:46:53;;;;;;;4.00;2.00;;;17.10;94.90;;;;;;6256339;22;20494;-91
2023/08/31 09:49:22;;;;;;;3.60;2.00;;;17.20;94.70;;;;;;6257546;22;20042;-92
2023/08/31 09:51:50;;;;;;;5.00;2.03;;;17.20;94.50;;;;;;6256706;22;20027;-92
2023/08/31 09:54:19;;;;;;;3.60;1.70;;;17.20;94.40;;;;;;6281858;22;20015;-93
2023/08/31 09:56:47;;;;;;;6.70;2.00;;;17.30;94.10;;;;;;6231552;22;20433;-91
2023/08/31 09:59:16;;;;;;;5.18;2.13;;;17.40;93.70;;;;;;6255885;22;20027;-85
2023/08/31 10:01:46;;;;;;;4.97;2.25;;;17.40;93.50;;;;;;6254850;22;20023;-86
2023/08/31 10:04:13;;;;;;;4.22;1.90;;;17.40;93.50;;;;;;6254044;22;20054;-84
2023/08/31 10:06:42;;;;;;;3.70;1.65;;;17.40;93.60;;;;;;6229484;22;20015;-84
2023/08/31 10:09:14;;;;;;;3.08;2.00;;;17.50;93.50;;;;;;6255396;22;20042;-84
2023/08/31 10:11:43;;;;;;;3.40;1.70;;;17.40;93.40;;;;;;6254680;22;20047;-84
2023/08/31 10:14:16;;;;;;;6.40;2.78;;;17.30;93.60;;;;;;6254430;22;20508;-84
2023/08/31 10:16:45;;;;;;;3.97;2.13;;;17.00;93.70;;;;;;6280154;22;20035;-84
2023/08/31 10:19:13;;;;;;;4.38;1.95;;;16.80;94.10;;;;;;6254932;22;20117;-84
2023/08/31 10:21:44;;;;;;;6.13;3.25;;;16.80;94.10;;;;;;6254719;22;20026;-84
2023/08/31 10:24:17;;;;;;;4.22;2.08;;;16.70;94.00;;;;;;6254215;22;20029;-84
2023/08/31 10:26:44;;;;;;;3.70;2.00;;;16.70;94.00;;;;;;6255972;22;20015;-85
2023/08/31 10:29:30;;;;;;;4.00;2.80;;;16.60;94.00;;;;;;6229066;22;20019;-84
2023/08/31 10:32:01;;;;;;;4.18;1.60;;;16.70;94.00;;;;;;6254247;22;20019;-83
2023/08/31 10:34:39;;;;;;;3.60;1.58;;;16.60;94.00;;;;;;6254188;22;20023;-83
2023/08/31 10:37:21;;;;;;;3.85;2.10;;;16.60;94.00;;;;;;6279991;22;20015;-84
2023/08/31 10:40:07;;;;;;;3.88;1.70;;;16.70;93.90;;;;;;6255168;22;20061;-84
2023/08/31 10:42:46;;;;;;;3.05;1.90;;;17.30;93.40;;;;;;6254548;22;20015;-84
2023/08/31 10:45:14;;;;;;;5.40;2.75;;;17.90;92.40;;;;;;6254161;22;20140;-83
2023/08/31 10:47:42;;;;;;;4.30;2.65;;;18.30;91.70;;;;;;6254173;22;20020;-84
2023/08/31 10:50:23;;;;;;;4.13;1.75;;;18.60;90.70;;;;;;6254956;22;20045;-83
2023/08/31 10:52:50;;;;;;;3.55;1.75;;;19.10;90.10;;;;;;6228831;22;20041;-82
2023/08/31 10:55:26;;;;;;;2.80;1.30;;;19.40;89.10;;;;;;6253827;22;20022;-83
2023/08/31 10:57:56;;;;;;;2.47;0.73;;;19.60;86.80;;;;;;6279626;22;20019;-84
2023/08/31 11:00:46;;;;;;;2.55;1.02;;;19.60;85.60;;;;;;6254140;22;20169;-83
2023/08/31 11:03:14;;;;;;;2.08;0.70;;;19.70;83.70;;;;;;6255789;22;20046;-84
2023/08/31 11:06:00;;;;;;;2.97;0.77;;;19.90;83.00;;;;;;6255670;22;20027;-84
2023/08/31 11:08:27;;;;;;;2.25;0.70;;;19.80;81.90;;;;;;6255917;22;20050;-83
2023/08/31 11:10:54;;;;;;;2.72;0.80;;;19.20;82.30;;;;;;6231822;22;20102;-84
2023/08/31 11:13:24;;;;;;;4.15;0.80;;;18.80;83.40;;;;;;6231869;22;20153;-84
2023/08/31 11:15:52;;;;;;;3.97;1.00;;;18.50;83.90;;;;;;6255710;22;20012;-84
2023/08/31 11:18:22;;;;;;;3.35;0.77;;;18.40;84.00;;;;;;6256751;22;20015;-82
2023/08/31 11:20:52;;;;;;;2.35;0.82;;;18.30;85.10;;;;;;6256406;22;20090;-83
2023/08/31 11:23:21;;;;;;;2.08;0.60;;;18.40;85.40;;;;;;6281478;22;20019;-84
2023/08/31 11:25:50;;;;;;;5.15;0.70;;;18.50;85.30;;;;;;6255799;22;20020;-84
2023/08/31 11:28:17;;;;;;;2.65;0.60;;;19.50;83.80;;;;;;6281076;22;20055;-85
2023/08/31 11:30:46;;;;;;;2.33;0.80;;;20.30;81.80;;;;;;6255804;22;20041;-85
2023/08/31 11:33:14;;;;;;;3.00;0.60;;;20.90;79.70;;;;;;6232060;22;20019;-85
2023/08/31 11:35:45;;;;;;;2.33;0.60;;;21.20;78.10;;;;;;6255945;22;20349;-85
2023/08/31 11:38:13;;;;;;;3.30;0.70;;;21.40;77.40;;;;;;6256108;22;20347;-85
2023/08/31 11:40:42;;;;;;;2.35;0.50;;;21.40;76.20;;;;;;6256062;22;20046;-84
2023/08/31 11:43:15;;;;;;;2.60;0.60;;;21.50;76.80;;;;;;6256316;22;20019;-84
2023/08/31 11:45:48;;;;;;;2.22;0.40;;;21.70;74.50;;;;;;6255786;22;20297;-85
2023/08/31 11:48:17;;;;;;;1.40;0.30;;;21.70;73.00;;;;;;6256268;22;20015;-84
2023/08/31 11:50:52;;;;;;;3.28;0.47;;;21.90;72.40;;;;;;6281840;22;20010;-86
2023/08/31 11:53:30;;;;;;;1.90;0.30;;;22.10;70.80;;;;;;6281238;22;20015;-86
2023/08/31 11:56:07;;;;;;;1.42;0.50;;;22.10;69.70;;;;;;6255774;22;20051;-86
2023/08/31 11:58:45;;;;;;;2.28;0.43;;;22.20;67.60;;;;;;6231500;22;20085;-85
2023/08/31 12:01:37;;;;;;;2.13;0.50;;;22.20;67.60;;;;;;6259985;22;20381;-86
2023/08/31 12:04:09;;;;;;;;;;;22.40;67.00;;;;;;6282014;22;20068;-86
2023/08/31 12:06:59;;;;;;;1.98;0.32;;;22.50;66.60;;;;;;6281059;22;19918;-85
2023/08/31 12:09:33;;;;;;;1.52;0.30;;;22.60;64.80;;;;;;6256429;22;20110;-86
2023/08/31 12:12:05;;;;;;;1.98;0.28;;;22.30;64.20;;;;;;6256833;22;20046;-87
2023/08/31 12:14:32;;;;;;;0.85;0.20;;;21.70;66.00;;;;;;6281221;22;20484;-89
2023/08/31 12:17:05;;;;;;;1.63;0.30;;;21.40;67.40;;;;;;6257610;22;20019;-89
2023/08/31 12:19:33;;;;;;;3.55;0.22;;;21.10;66.40;;;;;;6282608;22;20025;-91
2023/08/31 12:22:01;;;;;;;1.63;0.55;;;20.90;68.30;;;;;;6283560;22;20042;-91
2023/08/31 12:24:40;;;;;;;1.38;0.20;;;20.80;68.00;;;;;;6283595;22;20019;-93
2023/08/31 12:27:09;;;;;;;1.60;0.20;;;20.60;67.50;;;;;;6283650;22;20019;-89
2023/08/31 12:29:36;;;;;;;0.98;0.20;;;20.40;67.20;;;;;;6256361;22;20015;-90
2023/08/31 12:32:04;;;;;;;1.00;0.35;;;20.40;67.10;;;;;;6256950;22;20019;-91
2023/08/31 12:34:37;;;;;;;1.27;0.30;;;20.50;66.70;;;;;;6257192;22;20019;-92
2023/08/31 12:37:17;;;;;;;1.02;0.30;;;20.60;67.10;;;;;;6234357;22;20047;-88
2023/08/31 12:39:48;;;;;;;1.08;0.30;;;20.60;66.90;;;;;;6257190;22;20019;-91
2023/08/31 12:42:19;;;;;;;2.05;0.35;;;20.60;67.30;;;;;;6257344;22;20019;-92
2023/08/31 12:44:49;;;;;;;2.28;0.35;;;20.60;66.60;;;;;;6257021;22;20027;-88
2023/08/31 12:47:17;;;;;;;0.38;0.20;;;20.60;66.70;;;;;;6281816;22;20039;-88
2023/08/31 12:49:47;;;;;;;2.08;0.60;;;20.60;66.40;;;;;;6256996;22;20011;-90
2023/08/31 12:52:14;;;;;;;0.85;0.20;;;20.60;66.80;;;;;;6256487;22;20098;-89
2023/08/31 12:54:42;;;;;;;0.85;0.38;;;20.70;66.60;;;;;;6256654;22;20019;-90
2023/08/31 12:57:09;;;;;;;0.95;0.20;;;20.80;66.00;;;;;;6231804;22;20026;-92
2023/08/31 12:59:36;;;;;;;0.60;0.17;;;20.80;65.40;;;;;;6256497;22;20019;-92
2023/08/31 13:02:07;;;;;;;1.13;0.30;;;20.80;64.70;;;;;;6257246;22;20464;-88
2023/08/31 13:04:34;;;;;;;2.00;0.32;;;20.70;65.10;;;;;;6256523;22;20053;-90
2023/08/31 13:07:03;;;;;;;0.52;0.20;;;20.50;64.70;;;;;;6256628;22;20027;-89
2023/08/31 13:09:31;;;;;;;2.00;0.30;;;20.30;64.40;;;;;;6256592;22;20065;-92
2023/08/31 13:11:58;;;;;;;1.17;0.30;;;20.30;63.90;;;;;;6231651;22;20020;-91
2023/08/31 13:14:28;;;;;;;1.10;0.22;;;20.30;63.90;;;;;;6281293;22;20023;-92
2023/08/31 13:16:59;;;;;;;2.30;0.35;;;20.30;64.20;;;;;;6256916;22;20023;-89
2023/08/31 13:19:26;;;;;;;0.73;0.30;;;20.30;63.60;;;;;;6231992;22;20023;-86
2023/08/31 13:21:58;;;;;;;1.17;0.25;;;20.30;63.10;;;;;;6256681;22;20092;-91
2023/08/31 13:24:26;;;;;;;1.23;0.20;;;20.30;63.10;;;;;;6256639;22;20027;-87
2023/08/31 13:26:53;;;;;;;1.10;0.30;;;20.30;62.80;;;;;;6231915;22;20019;-86
2023/08/31 13:29:20;;;;;;;1.20;0.20;;;20.20;63.10;;;;;;6255675;22;20015;-89
2023/08/31 13:31:52;;;;;;;1.27;0.40;;;20.10;63.50;;;;;;6256819;22;20020;-86
2023/08/31 13:34:19;;;;;;;1.20;0.28;;;20.10;63.70;;;;;;6255705;22;20023;-86
2023/08/31 13:36:46;;;;;;;0.75;0.30;;;20.10;63.60;;;;;;6255931;22;20033;-88
2023/08/31 13:39:47;;;;;;;;;;;;;;;;;;;;;
2023/08/31 13:47:20;;;;;;;1.38;0.30;;;20.30;62.20;;;;;;6215582;23;20075;-89
2023/08/31 13:49:55;;;;;;;2.53;0.30;;;20.40;61.50;;;;;;6189406;23;20091;-88
2023/08/31 13:52:26;;;;;;;1.77;0.30;;;20.40;61.00;;;;;;6234654;22;20023;-90
2023/08/31 13:54:57;;;;;;;1.45;0.40;;;20.50;61.70;;;;;;6268395;22;20048;-88
2023/08/31 13:57:24;;;;;;;1.67;0.28;;;20.60;62.00;;;;;;6269556;22;20021;-86
2023/08/31 13:59:56;;;;;;;2.20;0.38;;;20.80;62.00;;;;;;6237532;22;20023;-91
2023/08/31 14:02:30;;;;;;;0.90;0.20;;;21.00;60.70;;;;;;6258619;22;20020;-89
2023/08/31 14:05:09;;;;;;;1.77;0.32;;;21.00;60.60;;;;;;6267312;22;20349;-89
2023/08/31 14:07:39;;;;;;;1.10;0.38;;;21.10;61.40;;;;;;6258644;22;20019;-94
2023/08/31 14:10:09;;;;;;;1.30;0.38;;;21.20;60.10;;;;;;6259008;22;20043;-89
2023/08/31 14:12:44;;;;;;;1.65;0.25;;;21.20;60.10;;;;;;6257875;22;20011;-92
2023/08/31 14:15:22;;;;;;;2.58;0.40;;;21.30;60.00;;;;;;6258698;22;20045;-87
2023/08/31 14:18:10;;;;;;;2.30;0.50;;;21.30;60.20;;;;;;6257474;22;20065;-88
2023/08/31 14:21:22;;;;;;;;;;;;;;;;;;;;;
2023/08/31 14:28:30;;;;;;;0.98;0.30;;;21.10;60.20;;;;;;6236879;22;20046;-88
2023/08/31 14:31:07;;;;;;;1.13;0.30;;;21.00;60.10;;;;;;6255572;22;20030;-88
2023/08/31 14:33:59;;;;;;;;;;;;;;;;;;;;;
2023/08/31 14:37:00;;;;;;;0.95;0.22;;;21.00;60.20;;;;;;6281698;22;20053;-90
2023/08/31 14:40:06;;;;;;;1.00;0.20;;;20.90;60.40;;;;;;6234055;22;20090;-90
2023/08/31 14:43:53;;;;;;;0.77;0.20;;;20.90;60.60;;;;;;6254740;22;20126;-88
2023/08/31 14:46:32;;;;;;;2.05;0.40;;;20.80;61.00;;;;;;6257797;22;20042;-87
2023/08/31 18:02:51;;;;;;;0.30;0.10;;;18.40;71.30;;;;;;6307980;22;20027;-87
2023/08/31 18:05:21;;;;;;;0.95;0.20;;;18.20;72.10;;;;;;6255605;22;20019;-89
2023/08/31 18:07:52;;;;;;;0.60;0.20;;;18.00;72.60;;;;;;6282420;22;20011;-87
2023/08/31 18:10:21;;;;;;;0.82;0.20;;;17.90;73.10;;;;;;6281602;22;20019;-86
2023/08/31 18:12:48;;;;;;;0.75;0.10;;;17.80;73.50;;;;;;6284162;22;20019;-88
2023/08/31 18:16:04;;;;;;;2.50;0.20;;;17.70;73.70;;;;;;6257880;22;20413;-91
2023/08/31 18:18:33;;;;;;;1.77;0.20;;;17.70;74.00;;;;;;6225715;22;20106;-90
2023/08/31 18:21:04;;;;;;;;;;;17.60;74.30;;;;;;6284719;22;20023;-92
2023/08/31 18:23:47;;;;;;;1.20;0.10;;;17.60;74.50;;;;;;6260404;22;19945;-89
2023/08/31 18:26:22;;;;;;;0.57;0.10;;;17.60;74.80;;;;;;6259427;22;20018;-93
2023/08/31 18:28:58;;;;;;;1.10;0.20;;;17.60;75.00;;;;;;6258220;22;20023;-92
2023/08/31 18:31:29;;;;;;;2.35;0.28;;;17.50;75.40;;;;;;6257908;22;20456;-87
2023/08/31 18:34:00;;;;;;;0.50;0.10;;;17.40;75.60;;;;;;6232918;22;20034;-90
2023/08/31 18:36:30;;;;;;;0.82;0.20;;;17.30;76.00;;;;;;6258891;22;20046;-88
2023/08/31 18:38:57;;;;;;;1.15;0.20;;;17.20;76.40;;;;;;6259036;22;20476;-86
2023/08/31 18:41:24;;;;;;;0.70;0.30;;;17.10;76.80;;;;;;6208918;22;20068;-85
2023/08/31 18:43:54;;;;;;;2.17;0.20;;;17.00;77.20;;;;;;6265611;22;20039;-88
2023/08/31 18:53:25;;;;;;;2.47;0.20;;;16.60;78.40;;;;;;6345516;22;20027;-88
2023/08/31 18:56:01;;;;;;;0.30;0.10;;;16.50;78.80;;;;;;6320060;22;20371;-92
2023/08/31 18:58:49;;;;;;;0.68;0.20;;;16.50;79.20;;;;;;6292513;22;20029;-91
2023/08/31 19:01:25;;;;;;;1.23;0.20;;;16.40;79.50;;;;;;6276665;22;20022;-90
2023/08/31 19:03:59;;;;;;;2.05;0.30;;;16.30;79.90;;;;;;6299465;22;20449;-91
2023/08/31 19:06:27;;;;;;;1.33;0.30;;;16.20;80.20;;;;;;6294479;22;20014;-88
2023/08/31 19:09:09;;;;;;;1.63;0.20;;;16.10;80.50;;;;;;6269654;22;20089;-90
2023/08/31 19:11:38;;;;;;;1.48;0.17;;;16.00;80.70;;;;;;6289960;22;20097;-94
2023/08/31 19:17:57;;;;;;;0.68;0.15;;;16.00;80.90;;;;;;6314161;22;20019;-87
2023/08/31 19:20:25;;;;;;;0.65;0.10;;;16.10;81.10;;;;;;6288135;22;20053;-86
2023/08/31 19:22:54;;;;;;;1.35;0.28;;;16.10;81.10;;;;;;6288082;22;20050;-88
2023/08/31 19:25:29;;;;;;;1.15;0.20;;;16.10;81.20;;;;;;6287188;22;20076;-89
2023/08/31 19:28:06;;;;;;;1.48;0.20;;;16.10;81.40;;;;;;6289008;22;20101;-88
2023/08/31 19:30:33;;;;;;;1.48;0.57;;;16.10;81.60;;;;;;6238725;22;20027;-87
2023/08/31 19:33:01;;;;;;;0.65;0.10;;;16.10;81.90;;;;;;6288171;22;20023;-87
2023/08/31 19:35:35;;;;;;;0.85;0.20;;;16.10;82.10;;;;;;6289999;22;20072;-93
2023/08/31 19:38:27;;;;;;;1.67;0.35;;;16.10;82.20;;;;;;6294074;22;20019;-93
2023/08/31 19:41:12;;;;;;;0.77;0.20;;;16.10;82.10;;;;;;6289872;22;20046;-92
2023/08/31 19:43:39;;;;;;;0.68;0.20;;;16.20;82.20;;;;;;6288005;22;20046;-87
2023/08/31 19:46:12;;;;;;;1.27;0.32;;;16.20;82.20;;;;;;6238515;22;20025;-86
2023/08/31 19:48:39;;;;;;;1.33;0.30;;;16.30;82.40;;;;;;6287351;22;20018;-85
2023/08/31 19:51:08;;;;;;;0.90;0.30;;;16.20;82.40;;;;;;6287334;22;20023;-86
2023/08/31 19:53:39;;;;;;;0.55;0.10;;;16.20;82.70;;;;;;6287835;22;20015;-88
2023/08/31 19:56:06;;;;;;;0.70;0.30;;;16.20;82.90;;;;;;6284561;22;20023;-87
2023/08/31 19:58:34;;;;;;;1.98;0.30;;;16.20;83.10;;;;;;6313004;22;20018;-87
2023/08/31 20:01:01;;;;;;;1.30;0.20;;;16.20;83.30;;;;;;6313643;22;20068;-89
2023/08/31 20:03:31;;;;;;;3.75;0.50;;;16.20;83.50;;;;;;6339532;22;20023;-90
2023/08/31 20:05:58;;;;;;;1.60;0.38;;;16.10;83.60;;;;;;6338969;22;20506;-88
2023/08/31 20:08:32;;;;;;;0.80;0.30;;;16.10;83.80;;;;;;6339116;22;20022;-88
2023/08/31 20:10:59;;;;;;;0.77;0.20;;;16.10;84.00;;;;;;6316009;22;20480;-88
2023/08/31 20:13:27;;;;;;;1.55;0.20;;;16.10;84.20;;;;;;6313454;22;20328;-91
2023/08/31 20:16:04;;;;;;;1.10;0.20;;;16.00;84.30;;;;;;6338828;22;20027;-88
2023/08/31 20:18:31;;;;;;;1.27;0.30;;;16.00;84.50;;;;;;6339855;22;20049;-90
2023/08/31 20:20:59;;;;;;;1.02;0.30;;;16.00;84.70;;;;;;6312846;22;20101;-88
2023/08/31 20:23:29;;;;;;;1.83;0.30;;;15.90;84.90;;;;;;6313508;22;20025;-88
2023/08/31 20:25:56;;;;;;;1.73;0.30;;;15.80;85.10;;;;;;6287197;22;20014;-92
2023/08/31 20:28:26;;;;;;;0.93;0.30;;;15.80;85.20;;;;;;6338861;22;20025;-87
2023/08/31 20:31:00;;;;;;;1.02;0.35;;;15.80;85.40;;;;;;6313479;22;20103;-86
2023/08/31 20:33:34;;;;;;;2.00;0.40;;;15.80;85.50;;;;;;6313580;22;20097;-87
2023/08/31 20:36:09;;;;;;;1.60;0.40;;;15.80;85.60;;;;;;6338969;22;20041;-88
2023/08/31 20:38:40;;;;;;;1.08;0.38;;;15.80;85.70;;;;;;6313443;22;20023;-86
2023/08/31 20:41:08;;;;;;;1.02;0.38;;;15.80;85.80;;;;;;6338871;22;20022;-88
2023/08/31 20:43:38;;;;;;;1.40;0.40;;;15.80;85.80;;;;;;6338990;22;20452;-88
2023/08/31 20:46:18;;;;;;;1.00;0.30;;;15.70;85.90;;;;;;6338709;22;20049;-87
2023/08/31 20:48:53;;;;;;;1.13;0.30;;;15.80;86.00;;;;;;6315759;22;20021;-87
2023/08/31 20:51:24;;;;;;;1.80;0.40;;;15.80;86.00;;;;;;6338686;22;20125;-87
2023/08/31 20:53:54;;;;;;;0.75;0.30;;;15.80;86.00;;;;;;6339071;22;20039;-87
2023/08/31 20:56:23;;;;;;;1.13;0.30;;;15.90;86.00;;;;;;6337881;22;20119;-86
2023/08/31 20:58:51;;;;;;;1.23;0.45;;;15.90;86.00;;;;;;6312966;22;20019;-87
2023/08/31 21:01:23;;;;;;;0.82;0.30;;;16.00;86.10;;;;;;6312898;22;20018;-85
2023/08/31 21:04:20;;;;;;;1.10;0.50;;;16.00;86.00;;;;;;6339478;22;20113;-93
2023/08/31 21:07:15;;;;;;;1.52;0.55;;;16.10;86.10;;;;;;6315354;22;20022;-91
2023/08/31 21:09:45;;;;;;;2.13;0.70;;;16.10;86.00;;;;;;6338658;22;20015;-87
2023/08/31 21:12:13;;;;;;;1.65;0.30;;;16.10;86.00;;;;;;6339120;22;20094;-89
2023/08/31 21:14:40;;;;;;;0.93;0.40;;;16.20;86.00;;;;;;6312967;22;20011;-90
2023/08/31 21:17:07;;;;;;;1.08;0.30;;;16.20;86.00;;;;;;6312751;22;20023;-90
2023/08/31 21:19:35;;;;;;;1.67;0.60;;;16.20;86.00;;;;;;6338630;22;20038;-88
2023/08/31 21:22:03;;;;;;;1.13;0.40;;;16.20;86.00;;;;;;6338233;22;20018;-86
2023/08/31 21:24:31;;;;;;;2.72;0.60;;;16.20;86.10;;;;;;6287596;22;20019;-88
2023/08/31 21:26:58;;;;;;;1.60;0.50;;;16.20;86.30;;;;;;6337872;22;20057;-89
2023/08/31 21:29:25;;;;;;;1.52;0.40;;;16.10;86.40;;;;;;6338224;22;20015;-87
2023/08/31 21:31:53;;;;;;;1.10;0.40;;;16.10;86.60;;;;;;6337663;22;20404;-87
2023/08/31 21:34:23;;;;;;;0.95;0.40;;;16.10;86.80;;;;;;6287675;22;20018;-84
2023/08/31 21:36:50;;;;;;;1.75;0.35;;;16.10;86.90;;;;;;6311968;22;20349;-86
2023/08/31 21:39:20;;;;;;;1.67;0.40;;;16.10;87.00;;;;;;6338624;22;20352;-87
2023/08/31 21:41:48;;;;;;;1.23;0.50;;;16.00;87.00;;;;;;6338227;22;20022;-86
2023/08/31 21:44:18;;;;;;;1.85;0.60;;;16.00;87.20;;;;;;6313038;22;20015;-86
2023/08/31 21:46:49;;;;;;;1.05;0.50;;;16.00;87.30;;;;;;6287395;22;20403;-86
2023/08/31 21:49:16;;;;;;;1.80;0.40;;;16.00;87.30;;;;;;6338224;22;20017;-85
2023/08/31 21:52:03;;;;;;;1.25;0.40;;;16.00;87.40;;;;;;6352870;22;20009;-87
2023/08/31 21:59:43;;;;;;;0.52;0.20;;;15.90;87.80;;;;;;6328643;22;20045;-87
2023/08/31 22:02:13;;;;;;;1.60;0.30;;;15.70;88.10;;;;;;6312900;22;20109;-88
2023/08/31 22:04:41;;;;;;;1.00;0.40;;;15.70;88.30;;;;;;6287515;22;20015;-89
2023/08/31 22:07:11;;;;;;;1.70;0.38;;;15.70;88.50;;;;;;6337702;22;20025;-89
2023/08/31 22:09:39;;;;;;;2.03;0.50;;;15.60;88.60;;;;;;6313343;22;20018;-90
2023/08/31 22:20:53;;;;;;;2.50;0.40;;;15.50;88.80;;;;;;6318370;22;20015;-90
2023/08/31 22:23:21;;;;;;;2.25;0.50;;;15.50;89.10;;;;;;6338189;22;20019;-89
2023/08/31 22:26:11;;;;;;;;;;;;;;;;;;;;;